This is the latest recevied weather packets stored in our database for station/object N0HEQ. If no packets are shown the sender has not sent any weather packets the latest 10 day(s).
| Time | Temp. | Humidity | Pressure | Rain* | Wind** | Luminosity | Snow |
|---|---|---|---|---|---|---|---|
| 1777491487 | 13.89° C | 38% | 1019.9 hPa | 0 mm | - | 58 W/m² | - |
| 1777491185 | 14.44° C | 38% | 1019.8 hPa | 0 mm | - | 127 W/m² | - |
| 1777490880 | 15.56° C | 38% | 1019.9 hPa | 0 mm | - | 475 W/m² | - |
| 1777490576 | 15° C | 37% | 1019.9 hPa | 0 mm | - | 785 W/m² | - |
| 1777490272 | 14.44° C | 41% | 1019.8 hPa | 0 mm | - | 225 W/m² | - |
| 1777489970 | 14.44° C | 40% | 1019.9 hPa | 0 mm | - | 198 W/m² | - |
| 1777489668 | 14.44° C | 40% | 1019.8 hPa | 0 mm | - | 192 W/m² | - |
| 1777489364 | 14.44° C | 41% | 1020.1 hPa | 0 mm | - | 333 W/m² | - |
| 1777489061 | 14.44° C | 40% | 1020.1 hPa | 0 mm | - | 248 W/m² | - |
| 1777488758 | 14.44° C | 41% | 1020.3 hPa | 0 mm | - | 490 W/m² | - |
| 1777488455 | 14.44° C | 42% | 1020.3 hPa | 0 mm | - | 517 W/m² | - |
| 1777488153 | 13.33° C | 44% | 1020.3 hPa | 0 mm | - | 457 W/m² | - |
| 1777487852 | 13.33° C | 44% | 1020.3 hPa | 0 mm | - | 202 W/m² | - |
| 1777487549 | 13.89° C | 42% | 1020.5 hPa | 0 mm | - | 211 W/m² | - |
| 1777487246 | 13.89° C | 44% | 1020.5 hPa | 0 mm | - | 245 W/m² | - |
| 1777486942 | 13.89° C | 44% | 1020.6 hPa | 0 mm | - | 272 W/m² | - |
| 1777486639 | 14.44° C | 43% | 1020.7 hPa | 0 mm | - | 355 W/m² | - |
| 1777486337 | 14.44° C | 45% | 1020.7 hPa | 0 mm | - | 313 W/m² | - |
| 1777486034 | 14.44° C | 44% | 1020.7 hPa | 0 mm | - | 284 W/m² | - |
| 1777485731 | 13.89° C | 46% | 1020.6 hPa | 0 mm | - | 361 W/m² | - |
| 1777485426 | 13.89° C | 46% | 1020.8 hPa | 0 mm | - | 279 W/m² | - |
| 1777485122 | 13.33° C | 49% | 1020.7 hPa | 0 mm | - | 381 W/m² | - |
| 1777484819 | 13.33° C | 48% | 1020.7 hPa | 0 mm | - | 240 W/m² | - |
| 1777484516 | 13.89° C | 47% | 1020.6 hPa | 0 mm | - | 291 W/m² | - |
| 1777484213 | 13.89° C | 46% | 1020.6 hPa | 0 mm | - | 412 W/m² | - |
* Rain latest hour (hover to see other rain measurements)
** Current wind speed in m/s (hover to see current wind gust speed)